Terminal Aerodrome Forecast
Issued by NWS

Home | Current Version | Previous Version | Text Only | Print | Product List | Glossary On
Versions: 1 2 3 4 5 6 7 8 9 10 11
000
FTUS46 KLOX 271100
TAFPMD
TAF
KPMD 271132Z 2712/2812 28008KT P6SM SKC
     FM271800 27015KT P6SM SKC
     FM272100 26020G30KT P6SM SCT150
     FM280500 26015G23KT P6SM BKN035=

USA.gov is the U.S. government's official web portal to all federal, state and local government web resources and services.